Platinum, AK (99651)

8:05 PM AKST on December 09, 2016 (GMT -0900)
Platinum | | Change Station

Elev 16 ft 59.01 °N, 161.82 °W | Updated 9 minutes ago

Mostly Cloudy
Mostly Cloudy
0 °F
Feels Like -18 °F
N
13
Wind Variable Wind from NNW

Today
High -- | Low -- °F
--% Chance of Precip.
Yesterday
High -- | Low -- °F
Precip. -- in
Pressure 30.14 in
Visibility 10.0 miles
Clouds Scattered Clouds 7000 ft
Overcast 9500 ft
Windchill -18 °F
Dew Point -4 °F
Humidity 83%
Rainfall 0.00 in
Snow Depth Not available.
10:28 AM 4:50 PM
Waxing Gibbous, 80% visible
METAR PAPM 100456Z AUTO 33011KT 10SM SCT070 OVC095 M18/M20 A3013 RMK AO2 SLP206 T11781200 FZRANO
Pressure 30.14 in
Visibility 10.0 miles
Clouds Scattered Clouds 7000 ft
Overcast 9500 ft
Windchill -18 °F
Dew Point -4 °F
Humidity 83%
Rainfall 0.00 in
Snow Depth Not available.
10:28 AM 4:50 PM
Waxing Gibbous, 80% visible
METAR PAPM 100456Z AUTO 33011KT 10SM SCT070 OVC095 M18/M20 A3013 RMK AO2 SLP206 T11781200 FZRANO

10-Day Weather Forecast

Almanac

Astronomy

Dec. 09, 2016 Rise Set
Actual Time
Civil Twilight
Nautical Twilight
Astronomical Twilight
Moon
Length of Visible Light
Length of Day
Tomorrow will be .
, % of the Moon is Illuminated

Today's Extremes

State Highs State Lows

Community

WunderPhotos

Upload Photos

1,956,529 photos uploaded!

WunderBlog® & News

Nearby

Air Quality

  Air Quality AQ Index Pollutant
Not available.

Snow Depth

Station Depth Elevation

Earthquake Activity

City Distance Mag. Time & Date
Minimum magnitude displayed is 2.5.

Coastal Water Temperatures

Place Temperature

Stations

Nearby Weather Stations

Station Location Temp. Windchill Dew Point Humidity Wind Precip. Elev Updated Type
                   

Watches & Warnings

There are currently no watches in effect.